Lund, NV (89317)

2:14 AM PDT on August 25, 2016 (GMT -0700)
Ely | | Change Station

Elev 6260 ft 39.30 °N, 114.85 °W | Updated 21 minutes ago

Clear
Clear
46 °F
Feels Like 41 °F
N
9
Wind Variable Wind from SSE

Today
High -- | Low -- °F
--% Chance of Precip.
Yesterday
High -- | Low -- °F
Precip. -- in
Pressure 29.94 in
Visibility 10.0 miles
Clouds Clear
Windchill 41 °F
Dew Point 17 °F
Humidity 31%
Rainfall 0.00 in
Snow Depth Not available.
6:03 AM 7:20 PM
Waning Gibbous, 47% visible
METAR KELY 250853Z AUTO 16008KT 10SM CLR 08/M08 A3020 RMK AO2 SLP137 T00781083 50002
Pressure 29.94 in
Visibility 10.0 miles
Clouds Clear
Windchill 41 °F
Dew Point 17 °F
Humidity 31%
Rainfall 0.00 in
Snow Depth Not available.
6:03 AM 7:20 PM
Waning Gibbous, 47% visible
METAR KELY 250853Z AUTO 16008KT 10SM CLR 08/M08 A3020 RMK AO2 SLP137 T00781083 50002

10-Day Weather Forecast

Almanac

Astronomy

Aug. 25, 2016 Rise Set
Actual Time
Civil Twilight
Nautical Twilight
Astronomical Twilight
Moon
Length of Visible Light
Length of Day
Tomorrow will be .
, % of the Moon is Illuminated

Today's Extremes

State Highs State Lows

Community

WunderPhotos

Upload Photos

1,934,814 photos uploaded!

WunderBlog® & News

Nearby

Air Quality

  Air Quality AQ Index Pollutant
Not available.

Snow Depth

Station Depth Elevation

Earthquake Activity

City Distance Mag. Time & Date
Minimum magnitude displayed is 2.5.

Coastal Water Temperatures

Place Temperature

Stations

Nearby Weather Stations

Station Location Temp. Windchill Dew Point Humidity Wind Precip. Elev Updated Type
                   

Watches & Warnings

There are currently no watches in effect.